KADG/ADG METAR and TAF weather

Enter ICAO airport designator
Station Type Date Time Source
KADG METAR 2018/04/26 15:09 UTC NOAA

KADG 261509Z AUTO 22005KT 10SM SCT019 08/03 A2997 RMK AO2 T00830033 TSNO


Station Type Date Time Source
KADG Decoded METAR 2018/04/26 15:09 UTC NOAA

ADRIAN LENAWEE COUNTY AIRPORT, MI, United States (KADG) 41-52N 84-05W 241M
Apr 26, 2018 - 11:09 AM EDT / 2018.04.26 1509 UTC
Wind: from the SW (220 degrees) at 6 MPH (5 KT):0
Visibility: 10 mile(s):0
Sky conditions: partly cloudy
Temperature: 46.9 F (8.3 C)
Dew Point: 37.9 F (3.3 C)
Relative Humidity: 70%
Pressure (altimeter): 29.97 in. Hg (1014 hPa)
ob: KADG 261509Z AUTO 22005KT 10SM SCT019 08/03 A2997 RMK AO2 T00830033 TSNO
cycle: 15

Station Type Date Time Source
KADG TAF UTC NOAA

Error!


Example: see airport list